createdAt,value
2023-05-01T00:02:04.420Z,12.66
2023-05-01T00:04:33.851Z,12.69
2023-05-01T00:07:00.629Z,12.70
2023-05-01T00:09:28.067Z,12.68
2023-05-01T00:11:54.767Z,12.67
2023-05-01T00:14:21.808Z,12.58
2023-05-01T00:16:48.592Z,12.49
2023-05-01T00:19:19.212Z,12.44
2023-05-01T00:21:48.031Z,12.38
2023-05-01T00:24:16.768Z,12.45
2023-05-01T00:26:43.525Z,12.38
2023-05-01T00:29:10.259Z,12.39
2023-05-01T00:31:37.267Z,12.36
2023-05-01T00:34:05.376Z,12.37
2023-05-01T00:36:32.813Z,12.45
2023-05-01T00:38:59.596Z,12.47
2023-05-01T00:41:26.541Z,12.40
2023-05-01T00:43:53.555Z,12.41
2023-05-01T00:46:20.563Z,12.38
2023-05-01T00:48:47.424Z,12.38
2023-05-01T00:51:15.905Z,12.33
2023-05-01T00:53:43.692Z,12.30
2023-05-01T00:56:11.324Z,12.32
2023-05-01T00:58:38.513Z,12.34
2023-05-01T01:01:05.638Z,12.33
2023-05-01T01:03:32.476Z,12.35
2023-05-01T01:06:08.397Z,12.36
2023-05-01T01:08:50.209Z,12.39
2023-05-01T01:11:21.843Z,12.37
2023-05-01T01:13:57.312Z,12.30
2023-05-01T01:16:30.258Z,12.27
2023-05-01T01:19:22.350Z,12.27
2023-05-01T01:21:51.754Z,12.24
2023-05-01T01:24:43.454Z,12.20
2023-05-01T01:27:20.702Z,12.09
2023-05-01T01:29:57.281Z,12.04
2023-05-01T01:32:46.009Z,12.02
2023-05-01T01:35:20.324Z,11.95
2023-05-01T01:38:06.899Z,11.93
2023-05-01T01:40:45.898Z,11.91
2023-05-01T01:43:14.198Z,11.92
2023-05-01T01:45:43.562Z,11.94
2023-05-01T01:48:15.408Z,12.02
2023-05-01T01:50:43.476Z,12.12
2023-05-01T01:53:12.122Z,12.17
2023-05-01T01:55:40.383Z,12.18
2023-05-01T01:58:09.487Z,12.18
2023-05-01T02:00:37.056Z,12.15
2023-05-01T02:03:04.112Z,12.16
2023-05-01T02:05:32.183Z,12.06
2023-05-01T02:07:59.382Z,11.98
2023-05-01T02:10:28.048Z,12.03
2023-05-01T02:12:57.100Z,12.02
2023-05-01T02:15:25.007Z,12.02
2023-05-01T02:17:52.716Z,12.07
2023-05-01T02:20:20.209Z,12.04
2023-05-01T02:22:47.664Z,12.03
2023-05-01T02:25:15.646Z,12.03
2023-05-01T02:27:50.870Z,12.03
2023-05-01T02:30:18.925Z,12.04
2023-05-01T02:32:45.669Z,12.05
2023-05-01T02:35:12.441Z,12.07
2023-05-01T02:37:39.558Z,12.07
2023-05-01T02:40:07.735Z,12.04
2023-05-01T02:42:36.940Z,12.02
2023-05-01T02:45:06.827Z,12.03
2023-05-01T02:47:38.579Z,12.05
2023-05-01T02:50:06.803Z,12.06
2023-05-01T02:52:33.862Z,12.04
2023-05-01T02:55:19.247Z,12.04
2023-05-01T02:57:46.050Z,12.03
2023-05-01T03:00:14.407Z,11.98
2023-05-01T03:02:41.299Z,12.01
2023-05-01T03:05:08.802Z,12.02
2023-05-01T03:07:35.676Z,12.02
2023-05-01T03:10:06.493Z,11.97
2023-05-01T03:12:33.248Z,11.92
2023-05-01T03:15:00.354Z,11.93
2023-05-01T03:17:27.487Z,11.98
2023-05-01T03:19:54.438Z,12.01
2023-05-01T03:22:21.458Z,11.98
2023-05-01T03:24:48.141Z,11.94
2023-05-01T03:27:14.900Z,11.96
2023-05-01T03:29:41.736Z,11.92
2023-05-01T03:32:08.480Z,11.94
2023-05-01T03:34:35.714Z,11.89
2023-05-01T03:37:02.390Z,11.88
2023-05-01T03:39:29.224Z,11.86
2023-05-01T03:42:28.040Z,11.89
2023-05-01T03:45:00.649Z,11.96
2023-05-01T03:47:29.158Z,11.96
2023-05-01T03:49:56.302Z,11.97
2023-05-01T03:52:23.508Z,11.95
2023-05-01T03:54:51.830Z,11.96
2023-05-01T03:57:25.261Z,11.91
2023-05-01T03:59:51.950Z,11.92
2023-05-01T04:02:19.639Z,11.89
2023-05-01T04:04:46.995Z,11.86
2023-05-01T04:07:13.992Z,11.92
2023-05-01T04:09:41.405Z,11.91
2023-05-01T04:12:08.188Z,11.93
2023-05-01T04:14:34.979Z,12.00
2023-05-01T04:17:02.597Z,12.04
2023-05-01T04:19:33.002Z,12.06
2023-05-01T04:22:00.607Z,12.06
2023-05-01T04:24:28.550Z,12.06
2023-05-01T04:26:55.273Z,12.10
2023-05-01T04:29:22.016Z,12.13
2023-05-01T04:31:48.835Z,12.10
2023-05-01T04:34:16.440Z,12.09
2023-05-01T04:36:43.160Z,12.08
2023-05-01T04:39:10.706Z,12.07
2023-05-01T04:41:37.504Z,12.06
2023-05-01T04:44:05.670Z,12.10
2023-05-01T04:46:32.510Z,12.15
2023-05-01T04:48:59.292Z,12.22
2023-05-01T04:51:26.068Z,12.22
2023-05-01T04:53:54.321Z,12.25
2023-05-01T04:56:25.807Z,12.28
2023-05-01T04:58:56.627Z,12.27
2023-05-01T05:01:25.852Z,12.29
2023-05-01T05:03:53.043Z,12.34
2023-05-01T05:06:20.197Z,12.36
2023-05-01T05:08:47.002Z,12.39
2023-05-01T05:11:13.698Z,12.41
2023-05-01T05:13:48.424Z,12.46
2023-05-01T05:16:15.849Z,12.52
2023-05-01T05:18:42.726Z,12.59
2023-05-01T05:21:10.796Z,12.62
2023-05-01T05:23:41.371Z,12.69
2023-05-01T05:26:08.117Z,12.73
2023-05-01T05:28:34.818Z,12.77
2023-05-01T05:31:02.029Z,12.74
2023-05-01T05:33:29.398Z,12.76
2023-05-01T05:35:58.862Z,12.82
2023-05-01T05:38:28.744Z,12.87
2023-05-01T05:40:59.516Z,12.88
2023-05-01T05:43:27.958Z,12.89
2023-05-01T05:45:59.583Z,12.92
2023-05-01T05:48:28.007Z,12.93
2023-05-01T05:50:55.310Z,12.95
2023-05-01T05:53:24.328Z,12.90
2023-05-01T05:55:53.052Z,12.89
2023-05-01T05:58:24.296Z,12.92
2023-05-01T06:00:53.218Z,12.93
2023-05-01T06:03:20.127Z,12.94
2023-05-01T06:05:47.763Z,12.90
2023-05-01T06:08:14.676Z,12.92
2023-05-01T06:10:45.049Z,12.93
2023-05-01T06:13:13.472Z,12.91
2023-05-01T06:15:43.947Z,12.94
2023-05-01T06:18:12.025Z,12.91
2023-05-01T06:20:39.219Z,12.92
2023-05-01T06:23:06.049Z,12.95
2023-05-01T06:25:49.634Z,12.96
2023-05-01T06:28:16.396Z,12.95
2023-05-01T06:30:43.422Z,12.96
2023-05-01T06:33:11.021Z,12.93
2023-05-01T06:35:40.081Z,12.98
2023-05-01T06:38:06.827Z,13.01
2023-05-01T06:40:35.400Z,13.07
2023-05-01T06:43:03.297Z,13.12
2023-05-01T06:45:30.533Z,13.18
2023-05-01T06:47:57.508Z,13.24
2023-05-01T06:50:24.289Z,13.29
2023-05-01T06:52:51.032Z,13.31
2023-05-01T06:55:17.721Z,13.33
2023-05-01T06:57:44.695Z,13.34
2023-05-01T07:00:12.610Z,13.32
2023-05-01T07:02:40.875Z,13.37
2023-05-01T07:05:07.857Z,13.43
2023-05-01T07:07:34.595Z,13.47
2023-05-01T07:10:02.299Z,13.48
2023-05-01T07:12:30.036Z,13.57
2023-05-01T07:15:00.066Z,13.60
2023-05-01T07:17:27.176Z,13.63
2023-05-01T07:19:53.964Z,13.66
2023-05-01T07:22:20.836Z,13.61
2023-05-01T07:24:47.605Z,13.62
2023-05-01T07:27:14.418Z,13.67
2023-05-01T07:29:41.421Z,13.67
2023-05-01T07:32:08.416Z,13.64
2023-05-01T07:34:35.320Z,13.59
2023-05-01T07:37:02.291Z,13.66
2023-05-01T07:39:29.227Z,13.62
2023-05-01T07:41:57.745Z,13.63
2023-05-01T07:44:24.666Z,13.69
2023-05-01T07:46:51.708Z,13.73
2023-05-01T07:49:18.442Z,13.82
2023-05-01T07:51:45.710Z,13.88
2023-05-01T07:54:15.078Z,13.86
2023-05-01T07:56:41.981Z,13.91
2023-05-01T07:59:08.717Z,13.95
2023-05-01T08:01:36.591Z,13.96
2023-05-01T08:04:03.467Z,14.12
2023-05-01T08:06:30.646Z,14.27
2023-05-01T08:08:57.415Z,14.41
2023-05-01T08:11:25.263Z,14.57
2023-05-01T08:13:51.966Z,14.61
2023-05-01T08:16:22.019Z,14.75
2023-05-01T08:18:49.168Z,14.86
2023-05-01T08:21:15.928Z,14.96
2023-05-01T08:23:42.914Z,15.02
2023-05-01T08:26:09.653Z,15.18
2023-05-01T08:28:36.370Z,15.20
2023-05-01T08:31:03.876Z,15.28
2023-05-01T08:33:30.631Z,15.34
2023-05-01T08:35:57.362Z,15.41
2023-05-01T08:38:24.464Z,15.38
2023-05-01T08:40:53.382Z,15.42
2023-05-01T08:43:20.903Z,15.47
2023-05-01T08:45:47.893Z,15.47
2023-05-01T08:48:17.627Z,15.52
2023-05-01T08:50:46.827Z,15.59
2023-05-01T08:53:15.938Z,15.73
2023-05-01T08:55:45.970Z,15.73
2023-05-01T08:58:13.840Z,15.85
2023-05-01T09:00:40.721Z,15.99
2023-05-01T09:03:07.906Z,16.08
2023-05-01T09:05:34.877Z,16.33
2023-05-01T09:08:01.660Z,16.43
2023-05-01T09:10:28.594Z,16.48
2023-05-01T09:12:58.189Z,16.39
2023-05-01T09:15:29.077Z,16.60
2023-05-01T09:17:57.361Z,16.82
2023-05-01T09:20:24.618Z,16.96
2023-05-01T09:22:52.054Z,17.21
2023-05-01T09:25:19.570Z,17.32
2023-05-01T09:27:46.436Z,17.60
2023-05-01T09:30:36.894Z,17.84
2023-05-01T09:33:10.456Z,17.88
2023-05-01T09:35:57.270Z,18.29
2023-05-01T09:38:28.864Z,18.38
2023-05-01T09:40:57.403Z,18.31
2023-05-01T09:43:26.913Z,18.34
2023-05-01T09:46:20.700Z,18.12
2023-05-01T09:48:58.905Z,18.20
2023-05-01T09:51:33.209Z,18.20
2023-05-01T09:54:02.102Z,18.24
2023-05-01T09:56:34.263Z,18.40
2023-05-01T09:59:18.421Z,18.50
2023-05-01T10:01:46.815Z,18.32
2023-05-01T10:04:14.321Z,18.26
2023-05-01T10:06:41.679Z,17.97
2023-05-01T10:09:17.185Z,18.12
2023-05-01T10:11:59.357Z,18.08
2023-05-01T10:14:28.401Z,18.04
2023-05-01T10:16:58.061Z,18.16
2023-05-01T10:19:25.625Z,18.45
2023-05-01T10:21:53.617Z,18.38
2023-05-01T10:24:20.593Z,18.37
2023-05-01T10:26:49.117Z,18.43
2023-05-01T10:29:16.225Z,18.29
2023-05-01T10:31:43.202Z,18.37
2023-05-01T10:34:12.294Z,18.34
2023-05-01T10:36:43.805Z,17.94
2023-05-01T10:39:34.207Z,17.96
2023-05-01T10:42:14.274Z,18.18
2023-05-01T10:44:42.067Z,18.22
2023-05-01T10:47:28.430Z,18.27
2023-05-01T10:50:12.315Z,18.63
2023-05-01T10:53:09.968Z,18.52
2023-05-01T10:55:37.638Z,18.58
2023-05-01T10:58:04.734Z,18.54
2023-05-01T11:00:32.660Z,18.20
2023-05-01T11:03:21.182Z,18.09
2023-05-01T11:06:00.593Z,18.30
2023-05-01T11:08:36.002Z,18.47
2023-05-01T11:11:23.180Z,18.58
2023-05-01T11:14:06.362Z,18.42
2023-05-01T11:16:46.366Z,18.56
2023-05-01T11:19:19.105Z,18.32
2023-05-01T11:21:45.886Z,18.51
2023-05-01T11:24:12.902Z,18.63
2023-05-01T11:26:41.246Z,18.58
2023-05-01T11:29:10.713Z,18.36
2023-05-01T11:31:38.818Z,18.28
2023-05-01T11:34:08.885Z,18.41
2023-05-01T11:36:49.534Z,18.78
2023-05-01T11:39:19.650Z,18.97
2023-05-01T11:41:46.471Z,18.79
2023-05-01T11:44:17.545Z,19.01
2023-05-01T11:46:44.604Z,18.89
2023-05-01T11:49:11.597Z,18.93
2023-05-01T11:51:38.375Z,18.82
2023-05-01T11:54:05.768Z,18.82
2023-05-01T11:56:34.200Z,18.96
2023-05-01T11:59:12.295Z,18.74
2023-05-01T12:01:41.182Z,18.59
2023-05-01T12:04:08.834Z,18.63
2023-05-01T12:06:40.901Z,18.66
2023-05-01T12:09:08.869Z,18.61
2023-05-01T12:11:36.055Z,18.70
2023-05-01T12:14:02.921Z,18.67
2023-05-01T12:16:30.309Z,18.48
2023-05-01T12:18:57.176Z,18.58
2023-05-01T12:21:25.448Z,18.54
2023-05-01T12:23:52.351Z,18.75
2023-05-01T12:26:19.973Z,18.86
2023-05-01T12:29:09.880Z,18.98
2023-05-01T12:31:37.093Z,19.01
2023-05-01T12:34:06.260Z,19.31
2023-05-01T12:36:35.893Z,19.27
2023-05-01T12:39:04.745Z,19.57
2023-05-01T12:41:37.946Z,19.74
2023-05-01T12:44:24.672Z,19.76
2023-05-01T12:47:09.373Z,19.97
2023-05-01T12:49:37.530Z,20.05
2023-05-01T12:52:06.395Z,20.42
2023-05-01T12:54:38.306Z,20.65
2023-05-01T12:57:16.201Z,20.65
2023-05-01T12:59:45.082Z,20.95
2023-05-01T13:02:15.279Z,20.65
2023-05-01T13:04:43.892Z,20.38
2023-05-01T13:07:16.350Z,20.03
2023-05-01T13:09:57.832Z,20.32
2023-05-01T13:12:26.503Z,20.37
2023-05-01T13:14:53.860Z,20.51
2023-05-01T13:17:28.350Z,20.36
2023-05-01T13:19:59.948Z,20.27
2023-05-01T13:22:34.539Z,20.08
2023-05-01T13:25:03.351Z,20.44
2023-05-01T13:27:30.205Z,20.59
2023-05-01T13:29:58.881Z,20.67
2023-05-01T13:32:26.725Z,20.21
2023-05-01T13:34:54.516Z,20.33
2023-05-01T13:37:23.882Z,20.01
2023-05-01T13:39:51.067Z,19.45
2023-05-01T13:42:27.529Z,19.30
2023-05-01T13:44:57.884Z,19.18
2023-05-01T13:47:28.878Z,19.34
2023-05-01T13:49:56.009Z,19.22
2023-05-01T13:52:23.360Z,19.12
2023-05-01T13:54:53.219Z,18.95
2023-05-01T13:57:20.150Z,18.95
2023-05-01T13:59:48.022Z,18.79
2023-05-01T14:02:25.553Z,18.59
2023-05-01T14:04:52.353Z,18.37
2023-05-01T14:07:21.377Z,18.13
2023-05-01T14:09:55.102Z,18.06
2023-05-01T14:12:34.160Z,18.01
2023-05-01T14:15:02.146Z,17.98
2023-05-01T14:17:33.841Z,17.87
2023-05-01T14:20:01.397Z,17.88
2023-05-01T14:22:45.565Z,17.84
2023-05-01T14:25:24.892Z,17.80
2023-05-01T14:27:53.811Z,17.70
2023-05-01T14:30:33.713Z,17.64
2023-05-01T14:33:04.935Z,17.70
2023-05-01T14:35:31.901Z,17.79
2023-05-01T14:38:12.827Z,18.00
2023-05-01T14:40:43.412Z,18.09
2023-05-01T14:43:11.278Z,18.16
2023-05-01T14:45:41.930Z,18.37
2023-05-01T14:48:09.707Z,18.54
2023-05-01T14:50:37.007Z,18.91
2023-05-01T14:53:03.983Z,19.15
2023-05-01T14:55:34.886Z,19.40
2023-05-01T14:58:02.223Z,19.28
2023-05-01T15:00:29.125Z,19.17
2023-05-01T15:02:55.978Z,19.18
2023-05-01T15:05:24.086Z,19.05
2023-05-01T15:07:51.242Z,18.88
2023-05-01T15:10:18.064Z,19.10
2023-05-01T15:12:44.792Z,18.92
2023-05-01T15:15:11.780Z,18.73
2023-05-01T15:17:38.539Z,18.56
2023-05-01T15:20:06.371Z,18.42
2023-05-01T15:22:33.163Z,18.33
2023-05-01T15:25:00.186Z,18.36
2023-05-01T15:27:27.756Z,18.14
2023-05-01T15:29:54.582Z,18.25
